createdAt,value
2023-03-29T00:00:12.655Z,0.60
2023-03-29T00:02:40.991Z,0.73
2023-03-29T00:05:10.602Z,0.65
2023-03-29T00:07:38.492Z,0.70
2023-03-29T00:10:07.646Z,0.70
2023-03-29T00:12:35.569Z,0.50
2023-03-29T00:15:03.906Z,0.65
2023-03-29T00:17:33.948Z,1.13
2023-03-29T00:20:01.844Z,0.90
2023-03-29T00:22:29.779Z,0.75
2023-03-29T00:24:57.660Z,0.90
2023-03-29T00:27:25.819Z,0.70
2023-03-29T00:29:53.706Z,0.57
2023-03-29T00:32:21.890Z,0.70
2023-03-29T00:34:51.802Z,0.80
2023-03-29T00:37:19.982Z,0.60
2023-03-29T00:39:48.317Z,0.80
2023-03-29T00:42:18.677Z,0.80
2023-03-29T00:45:02.010Z,0.80
2023-03-29T00:47:33.859Z,0.60
2023-03-29T00:50:09.856Z,0.68
2023-03-29T00:52:39.629Z,0.90
2023-03-29T00:55:12.311Z,1.23
2023-03-29T00:57:43.368Z,0.77
2023-03-29T01:00:14.706Z,0.60
2023-03-29T01:02:44.607Z,0.60
2023-03-29T01:05:18.645Z,0.80
2023-03-29T01:07:53.813Z,1.00
2023-03-29T01:10:26.793Z,1.10
2023-03-29T01:13:01.166Z,0.88
2023-03-29T01:15:29.931Z,0.85
2023-03-29T01:17:58.482Z,0.80
2023-03-29T01:20:43.433Z,0.68
2023-03-29T01:23:38.236Z,0.82
2023-03-29T01:26:16.081Z,0.98
2023-03-29T01:28:50.683Z,0.88
2023-03-29T01:31:25.649Z,1.13
2023-03-29T01:34:00.080Z,1.00
2023-03-29T01:36:35.054Z,0.80
2023-03-29T01:39:07.116Z,1.00
2023-03-29T01:41:41.309Z,0.90
2023-03-29T01:44:18.458Z,0.90
2023-03-29T01:46:48.216Z,1.23
2023-03-29T01:49:23.171Z,0.98
2023-03-29T01:51:57.250Z,0.70
2023-03-29T01:54:29.463Z,1.50
2023-03-29T01:56:59.534Z,1.02
2023-03-29T01:59:34.478Z,1.25
2023-03-29T02:02:05.558Z,1.33
2023-03-29T02:04:38.332Z,0.88
2023-03-29T02:07:09.757Z,1.23
2023-03-29T02:09:38.656Z,1.15
2023-03-29T02:12:09.376Z,1.00
2023-03-29T02:14:39.009Z,0.90
2023-03-29T02:17:21.496Z,1.10
2023-03-29T02:19:53.544Z,0.80
2023-03-29T02:22:27.772Z,1.13
2023-03-29T02:24:59.398Z,1.17
2023-03-29T02:27:29.170Z,1.05
2023-03-29T02:29:59.244Z,1.00
2023-03-29T02:32:34.701Z,1.30
2023-03-29T02:35:08.513Z,1.15
2023-03-29T02:40:12.596Z,1.00
2023-03-29T02:42:41.131Z,1.00
2023-03-29T02:45:14.157Z,1.00
2023-03-29T02:47:46.684Z,0.85
2023-03-29T02:50:14.881Z,1.02
2023-03-29T02:52:52.331Z,1.02
2023-03-29T02:55:22.605Z,0.95
2023-03-29T02:57:50.510Z,1.38
2023-03-29T03:00:23.194Z,1.00
2023-03-29T03:02:52.236Z,1.08
2023-03-29T03:05:20.377Z,0.73
2023-03-29T03:07:48.287Z,1.00
2023-03-29T03:10:16.295Z,1.05
2023-03-29T03:12:44.178Z,1.17
2023-03-29T03:15:13.520Z,1.08
2023-03-29T03:17:42.919Z,1.02
2023-03-29T03:20:13.914Z,1.35
2023-03-29T03:22:43.231Z,1.20
2023-03-29T03:25:13.691Z,1.42
2023-03-29T03:27:42.121Z,1.25
2023-03-29T03:30:11.551Z,1.48
2023-03-29T03:32:39.492Z,1.55
2023-03-29T03:35:10.036Z,1.02
2023-03-29T03:37:38.389Z,1.33
2023-03-29T03:40:11.997Z,1.23
2023-03-29T03:42:40.376Z,1.17
2023-03-29T03:45:10.679Z,1.30
2023-03-29T03:47:39.033Z,1.45
2023-03-29T03:50:09.926Z,1.30
2023-03-29T03:52:37.904Z,1.30
2023-03-29T03:55:06.513Z,1.48
2023-03-29T03:57:37.458Z,1.05
2023-03-29T04:00:19.466Z,1.40
2023-03-29T04:02:49.535Z,1.65
2023-03-29T04:05:20.046Z,1.48
2023-03-29T04:07:48.302Z,1.63
2023-03-29T04:10:16.567Z,1.42
2023-03-29T04:12:44.514Z,1.70
2023-03-29T04:15:12.441Z,1.48
2023-03-29T04:17:40.569Z,1.73
2023-03-29T04:20:12.455Z,1.73
2023-03-29T04:22:42.263Z,1.52
2023-03-29T04:25:11.834Z,1.52
2023-03-29T04:27:40.011Z,1.10
2023-03-29T04:30:09.591Z,1.80
2023-03-29T04:32:37.853Z,1.20
2023-03-29T04:35:06.681Z,1.70
2023-03-29T04:37:34.913Z,1.63
2023-03-29T04:40:08.443Z,1.80
2023-03-29T04:42:36.405Z,1.45
2023-03-29T04:45:04.502Z,1.52
2023-03-29T04:47:32.801Z,1.13
2023-03-29T04:50:00.771Z,1.40
2023-03-29T04:52:33.110Z,1.50
2023-03-29T04:55:01.094Z,1.52
2023-03-29T04:57:30.418Z,1.50
2023-03-29T04:59:58.453Z,1.40
2023-03-29T05:02:26.374Z,1.60
2023-03-29T05:04:54.265Z,1.88
2023-03-29T05:07:22.526Z,1.98
2023-03-29T05:09:50.425Z,2.15
2023-03-29T05:12:18.365Z,1.73
2023-03-29T05:14:47.673Z,1.50
2023-03-29T05:17:15.568Z,1.17
2023-03-29T05:19:43.568Z,1.27
2023-03-29T05:22:11.496Z,1.10
2023-03-29T05:24:39.412Z,1.27
2023-03-29T05:27:07.327Z,1.50
2023-03-29T05:29:35.218Z,1.45
2023-03-29T05:32:04.976Z,2.05
2023-03-29T05:34:32.933Z,1.45
2023-03-29T05:37:01.618Z,1.90
2023-03-29T05:39:30.045Z,1.80
2023-03-29T05:41:57.917Z,1.55
2023-03-29T05:44:25.893Z,1.70
2023-03-29T05:46:53.883Z,1.52
2023-03-29T05:49:23.132Z,1.73
2023-03-29T05:51:52.087Z,1.33
2023-03-29T05:54:19.997Z,1.63
2023-03-29T05:56:47.926Z,1.30
2023-03-29T05:59:17.679Z,1.45
2023-03-29T06:01:47.073Z,1.63
2023-03-29T06:04:15.176Z,1.42
2023-03-29T06:06:44.605Z,1.85
2023-03-29T06:09:12.517Z,1.58
2023-03-29T06:11:40.828Z,1.40
2023-03-29T06:14:08.820Z,1.55
2023-03-29T06:16:38.094Z,1.25
2023-03-29T06:19:07.401Z,1.65
2023-03-29T06:21:35.767Z,1.73
2023-03-29T06:24:05.745Z,1.70
2023-03-29T06:26:33.816Z,1.48
2023-03-29T06:29:01.692Z,1.60
2023-03-29T06:31:30.186Z,1.60
2023-03-29T06:33:58.819Z,1.40
2023-03-29T06:36:27.003Z,1.38
2023-03-29T06:38:55.544Z,1.77
2023-03-29T06:41:24.901Z,1.00
2023-03-29T06:43:53.639Z,1.63
2023-03-29T06:46:21.703Z,1.17
2023-03-29T06:48:49.599Z,1.30
2023-03-29T06:51:17.566Z,1.33
2023-03-29T06:53:45.487Z,1.52
2023-03-29T06:56:13.468Z,1.80
2023-03-29T06:58:42.860Z,1.10
2023-03-29T07:01:11.678Z,1.80
2023-03-29T07:03:40.044Z,1.33
2023-03-29T07:06:11.765Z,1.80
2023-03-29T07:08:43.804Z,1.30
2023-03-29T07:11:13.838Z,1.35
2023-03-29T07:13:44.020Z,1.35
2023-03-29T07:16:13.871Z,1.60
2023-03-29T07:18:43.094Z,1.85
2023-03-29T07:21:12.650Z,1.08
2023-03-29T07:23:41.052Z,1.50
2023-03-29T07:26:09.539Z,1.40
2023-03-29T07:28:39.429Z,1.65
2023-03-29T07:31:12.019Z,2.20
2023-03-29T07:33:40.890Z,1.90
2023-03-29T07:36:09.689Z,1.33
2023-03-29T07:38:38.591Z,1.85
2023-03-29T07:41:08.053Z,1.52
2023-03-29T07:43:36.686Z,1.55
2023-03-29T07:46:06.799Z,1.95
2023-03-29T07:48:37.127Z,2.72
2023-03-29T07:51:06.198Z,3.10
2023-03-29T07:53:34.217Z,3.25
2023-03-29T07:56:02.126Z,7.18
2023-03-29T07:58:30.638Z,7.28
2023-03-29T08:01:01.338Z,9.02
2023-03-29T08:03:29.584Z,7.00
2023-03-29T08:06:02.435Z,7.53
2023-03-29T08:08:30.330Z,7.35
2023-03-29T08:10:58.548Z,6.60
2023-03-29T08:13:26.597Z,5.75
2023-03-29T08:15:54.470Z,4.85
2023-03-29T08:18:22.443Z,5.10
2023-03-29T08:20:52.705Z,4.30
2023-03-29T08:23:22.018Z,3.90
2023-03-29T08:25:49.854Z,3.35
2023-03-29T08:28:18.011Z,3.15
2023-03-29T08:30:46.838Z,2.53
2023-03-29T08:33:15.602Z,2.10
2023-03-29T08:35:43.797Z,2.08
2023-03-29T08:38:12.649Z,2.05
2023-03-29T08:40:42.074Z,1.60
2023-03-29T08:43:32.575Z,1.52
2023-03-29T08:46:10.288Z,1.77
2023-03-29T08:48:42.358Z,2.05
2023-03-29T08:51:21.579Z,1.73
2023-03-29T08:53:53.701Z,1.70
2023-03-29T08:56:27.567Z,1.77
2023-03-29T08:58:57.356Z,2.78
2023-03-29T09:01:26.650Z,2.22
2023-03-29T09:04:04.982Z,2.28
2023-03-29T09:06:33.044Z,2.33
2023-03-29T09:09:02.436Z,1.90
2023-03-29T09:11:48.004Z,2.30
2023-03-29T09:14:30.009Z,1.80
2023-03-29T09:17:02.738Z,2.30
2023-03-29T09:19:38.834Z,2.42
2023-03-29T09:22:17.028Z,1.70
2023-03-29T09:25:01.594Z,1.92
2023-03-29T09:27:36.349Z,2.38
2023-03-29T09:30:15.332Z,2.45
2023-03-29T09:32:50.951Z,2.20
2023-03-29T09:35:24.010Z,1.63
2023-03-29T09:37:54.286Z,1.40
2023-03-29T09:40:27.836Z,1.73
2023-03-29T09:42:58.523Z,2.42
2023-03-29T09:45:26.506Z,1.60
2023-03-29T09:47:58.890Z,1.77
2023-03-29T09:50:34.103Z,1.55
2023-03-29T09:53:02.633Z,1.55
2023-03-29T09:55:33.984Z,1.58
2023-03-29T09:58:12.401Z,1.33
2023-03-29T10:00:41.092Z,1.15
2023-03-29T10:03:10.745Z,1.58
2023-03-29T10:05:40.133Z,1.75
2023-03-29T10:08:22.462Z,1.30
2023-03-29T10:10:51.031Z,1.00
2023-03-29T10:13:23.825Z,1.35
2023-03-29T10:15:59.501Z,1.42
2023-03-29T10:18:28.228Z,1.15
2023-03-29T10:21:01.289Z,1.63
2023-03-29T10:23:33.463Z,1.40
2023-03-29T10:26:04.756Z,1.33
2023-03-29T10:28:36.413Z,1.23
2023-03-29T10:31:08.191Z,1.20
2023-03-29T10:33:37.701Z,1.10
2023-03-29T10:36:08.564Z,1.42
2023-03-29T10:38:38.417Z,1.15
2023-03-29T10:41:10.193Z,1.27
2023-03-29T10:43:44.534Z,1.52
2023-03-29T10:46:20.044Z,1.23
2023-03-29T10:48:52.860Z,1.33
2023-03-29T10:51:21.334Z,1.38
2023-03-29T10:53:49.308Z,1.10
2023-03-29T10:56:34.096Z,1.25
2023-03-29T10:59:28.595Z,1.30
2023-03-29T11:02:40.855Z,1.70
2023-03-29T11:05:25.579Z,1.70
2023-03-29T11:08:17.928Z,1.65
2023-03-29T11:10:55.135Z,1.63
2023-03-29T11:13:32.592Z,1.40
2023-03-29T11:16:13.360Z,1.15
2023-03-29T11:19:10.059Z,1.73
2023-03-29T11:21:43.331Z,1.75
2023-03-29T11:24:29.135Z,2.50
2023-03-29T11:27:10.976Z,1.23
2023-03-29T11:29:50.636Z,1.33
2023-03-29T11:32:30.280Z,1.92
2023-03-29T11:35:09.225Z,1.77
2023-03-29T11:37:43.255Z,3.53
2023-03-29T11:40:31.720Z,1.08
2023-03-29T11:43:02.453Z,1.65
2023-03-29T11:45:35.612Z,1.70
2023-03-29T11:48:08.734Z,1.70
2023-03-29T11:50:45.825Z,2.08
2023-03-29T11:53:18.891Z,1.58
2023-03-29T11:55:48.407Z,2.00
2023-03-29T11:58:19.859Z,1.33
2023-03-29T12:00:50.637Z,1.48
2023-03-29T12:03:29.974Z,1.70
2023-03-29T12:06:05.023Z,1.73
2023-03-29T12:08:36.264Z,1.63
2023-03-29T12:11:11.877Z,1.17
2023-03-29T12:13:44.097Z,1.58
2023-03-29T12:16:18.639Z,1.70
2023-03-29T12:18:50.640Z,2.53
2023-03-29T12:21:22.438Z,1.50
2023-03-29T12:23:52.032Z,2.05
2023-03-29T12:26:35.384Z,1.10
2023-03-29T12:29:29.710Z,1.92
2023-03-29T12:34:58.247Z,1.35
2023-03-29T12:37:36.240Z,1.30
2023-03-29T12:40:15.206Z,1.42
2023-03-29T12:42:48.173Z,1.45
2023-03-29T12:45:20.989Z,1.67
2023-03-29T12:47:52.121Z,1.77
2023-03-29T12:50:29.017Z,1.58
2023-03-29T12:53:08.615Z,1.75
2023-03-29T12:55:50.507Z,1.58
2023-03-29T12:58:39.372Z,1.42
2023-03-29T13:01:10.598Z,1.83
2023-03-29T13:03:48.436Z,1.40
2023-03-29T13:06:30.249Z,2.42
2023-03-29T13:09:03.676Z,1.73
2023-03-29T13:11:35.520Z,1.60
2023-03-29T13:14:11.781Z,1.77
2023-03-29T13:16:42.222Z,1.70
2023-03-29T13:19:28.071Z,1.80
2023-03-29T13:22:08.559Z,1.67
2023-03-29T13:25:09.231Z,2.22
2023-03-29T13:27:46.459Z,2.20
2023-03-29T13:30:25.812Z,2.28
2023-03-29T13:33:07.436Z,1.13
2023-03-29T13:35:46.356Z,1.15
2023-03-29T13:38:20.795Z,1.58
2023-03-29T13:41:00.562Z,1.33
2023-03-29T13:43:34.479Z,1.55
2023-03-29T13:46:22.371Z,1.67
2023-03-29T13:48:59.229Z,2.55
2023-03-29T13:51:36.082Z,1.73
2023-03-29T13:54:14.309Z,1.50
2023-03-29T13:56:52.448Z,1.98
2023-03-29T13:59:26.654Z,1.77
2023-03-29T14:01:58.038Z,1.60
2023-03-29T14:04:29.183Z,1.35
2023-03-29T14:06:58.668Z,1.63
2023-03-29T14:09:33.051Z,1.83
2023-03-29T14:12:02.059Z,1.77
2023-03-29T14:14:32.878Z,1.48
2023-03-29T14:17:02.335Z,1.60
2023-03-29T14:19:33.100Z,1.70
2023-03-29T14:22:02.816Z,1.27
2023-03-29T14:24:39.368Z,2.42
2023-03-29T14:27:11.403Z,1.33
2023-03-29T14:29:39.340Z,1.52
2023-03-29T14:32:12.708Z,2.92
2023-03-29T14:34:41.122Z,2.03
2023-03-29T14:37:12.781Z,1.70
2023-03-29T14:39:42.744Z,1.88
2023-03-29T14:42:20.824Z,1.73
2023-03-29T14:44:50.852Z,1.92
2023-03-29T14:47:25.361Z,2.10
2023-03-29T14:49:54.542Z,1.83
2023-03-29T14:52:22.807Z,1.90
2023-03-29T14:54:56.636Z,1.73
2023-03-29T14:57:26.422Z,1.67
2023-03-29T14:59:56.018Z,1.17
2023-03-29T15:02:26.230Z,1.55
2023-03-29T15:04:59.598Z,1.80
2023-03-29T15:07:29.471Z,1.67
2023-03-29T15:10:00.702Z,1.85
2023-03-29T15:12:30.988Z,1.77
2023-03-29T15:15:00.388Z,1.33
2023-03-29T15:17:46.825Z,1.67
2023-03-29T15:20:23.506Z,1.83
2023-03-29T15:22:58.835Z,1.65
2023-03-29T15:25:33.340Z,1.77
2023-03-29T15:28:01.873Z,1.58
2023-03-29T15:30:34.841Z,1.95
2023-03-29T15:33:18.224Z,2.08
2023-03-29T15:35:51.333Z,2.50
2023-03-29T15:38:23.379Z,2.45
2023-03-29T15:40:57.083Z,2.30
2023-03-29T15:43:25.852Z,2.40
2023-03-29T15:45:53.812Z,2.70
2023-03-29T15:48:24.341Z,2.40
2023-03-29T15:50:53.105Z,1.98
2023-03-29T15:53:21.964Z,2.50
2023-03-29T15:55:52.486Z,2.55
2023-03-29T15:58:25.849Z,2.45
2023-03-29T16:00:59.266Z,2.50
2023-03-29T16:03:28.423Z,2.53
2023-03-29T16:05:57.487Z,2.22
2023-03-29T16:08:26.133Z,2.45
2023-03-29T16:10:54.044Z,3.45
2023-03-29T16:13:23.361Z,2.35
2023-03-29T16:15:51.294Z,2.40
2023-03-29T16:18:19.283Z,2.40
2023-03-29T16:20:47.182Z,2.70
2023-03-29T16:23:15.230Z,2.22
2023-03-29T16:25:43.470Z,2.42
2023-03-29T16:28:11.451Z,2.15
2023-03-29T16:30:41.019Z,2.28
2023-03-29T16:33:09.388Z,3.17
2023-03-29T16:35:40.040Z,4.80
2023-03-29T16:38:11.750Z,5.43
2023-03-29T16:40:39.645Z,4.68
2023-03-29T16:43:07.693Z,4.07
2023-03-29T16:45:36.361Z,5.72
2023-03-29T16:48:05.883Z,4.28
2023-03-29T16:50:33.982Z,3.17
2023-03-29T16:53:02.012Z,2.72
2023-03-29T16:55:29.901Z,2.28
2023-03-29T16:57:58.046Z,2.72
2023-03-29T17:00:26.043Z,2.55
2023-03-29T17:02:53.977Z,1.95
2023-03-29T17:05:23.373Z,2.17
2023-03-29T17:07:51.382Z,2.97
2023-03-29T17:10:19.596Z,1.95
2023-03-29T17:12:47.586Z,2.33
2023-03-29T17:15:15.992Z,2.08
2023-03-29T17:17:43.936Z,2.70
2023-03-29T17:20:12.978Z,2.90
2023-03-29T17:22:42.908Z,1.98
2023-03-29T17:25:11.263Z,2.15
2023-03-29T17:27:39.220Z,2.55
2023-03-29T17:30:08.480Z,1.70
2023-03-29T17:32:36.849Z,2.25
2023-03-29T17:35:05.144Z,2.15
2023-03-29T17:37:33.058Z,2.35
2023-03-29T17:40:09.446Z,3.28
2023-03-29T17:42:37.393Z,5.35
2023-03-29T17:45:06.276Z,4.55
2023-03-29T17:47:34.157Z,2.40
2023-03-29T17:50:02.133Z,2.05
2023-03-29T17:52:30.170Z,2.50
2023-03-29T17:54:58.113Z,2.03
2023-03-29T17:57:27.544Z,2.50
2023-03-29T17:59:55.540Z,3.13
2023-03-29T18:02:25.275Z,3.38
2023-03-29T18:04:53.438Z,2.65
2023-03-29T18:07:21.410Z,2.58
2023-03-29T18:09:49.397Z,2.47
2023-03-29T18:12:17.671Z,3.63
2023-03-29T18:14:46.977Z,2.33
2023-03-29T18:17:14.882Z,2.15
2023-03-29T18:19:42.839Z,2.55
2023-03-29T18:22:10.759Z,2.58
2023-03-29T18:24:38.691Z,1.88
2023-03-29T18:27:06.682Z,2.20
2023-03-29T18:29:34.616Z,2.80
2023-03-29T18:32:04.612Z,2.80
2023-03-29T18:34:33.427Z,2.33
2023-03-29T18:37:01.343Z,3.00
2023-03-29T18:39:29.521Z,3.03
2023-03-29T18:41:57.653Z,2.97
2023-03-29T18:44:27.423Z,3.08
2023-03-29T18:46:55.520Z,2.78
2023-03-29T18:49:25.099Z,3.15
2023-03-29T18:51:54.396Z,2.83
2023-03-29T18:54:22.588Z,3.60
2023-03-29T18:56:51.592Z,2.65
2023-03-29T18:59:19.820Z,3.70
2023-03-29T19:01:47.760Z,4.15
2023-03-29T19:04:15.860Z,4.18
2023-03-29T19:06:45.121Z,5.05
2023-03-29T19:09:13.038Z,3.67
2023-03-29T19:11:41.121Z,3.35
2023-03-29T19:14:09.316Z,5.03
2023-03-29T19:16:37.372Z,4.00
2023-03-29T19:19:07.041Z,3.70
2023-03-29T19:21:35.111Z,4.40
2023-03-29T19:24:07.778Z,4.28
2023-03-29T19:26:35.822Z,4.07
2023-03-29T19:29:03.737Z,4.18
2023-03-29T19:31:33.491Z,3.60
2023-03-29T19:34:01.541Z,3.25
2023-03-29T19:36:29.534Z,3.83
2023-03-29T19:38:57.549Z,2.60
2023-03-29T19:41:27.765Z,4.22
2023-03-29T19:43:55.783Z,3.20
2023-03-29T19:46:24.208Z,4.20
2023-03-29T19:48:55.651Z,3.45
2023-03-29T19:51:24.053Z,3.95
2023-03-29T19:53:52.843Z,3.92
2023-03-29T19:56:20.927Z,4.07
2023-03-29T19:58:50.700Z,3.85
2023-03-29T20:01:21.020Z,3.33
2023-03-29T20:03:50.143Z,4.43
2023-03-29T20:06:19.797Z,4.25
2023-03-29T20:08:48.578Z,3.50
2023-03-29T20:11:19.847Z,3.38
2023-03-29T20:13:47.809Z,4.03
2023-03-29T20:16:19.028Z,3.85
2023-03-29T20:18:47.453Z,3.78
2023-03-29T20:21:17.120Z,4.68
2023-03-29T20:23:45.536Z,3.50
2023-03-29T20:26:13.405Z,4.40
2023-03-29T20:28:41.342Z,4.32
2023-03-29T20:31:10.803Z,4.82
2023-03-29T20:33:41.381Z,5.20
2023-03-29T20:36:10.109Z,4.15
2023-03-29T20:38:38.392Z,5.22
2023-03-29T20:41:08.940Z,3.72
2023-03-29T20:43:38.938Z,4.88
2023-03-29T20:46:14.241Z,4.78
2023-03-29T20:48:46.151Z,5.80
2023-03-29T20:51:14.283Z,3.85
2023-03-29T20:53:43.005Z,5.18
2023-03-29T20:56:10.943Z,5.10
2023-03-29T20:58:42.271Z,4.55
2023-03-29T21:01:12.424Z,4.13
2023-03-29T21:03:40.510Z,4.15
2023-03-29T21:06:14.069Z,4.53
2023-03-29T21:08:42.678Z,4.32
2023-03-29T21:11:13.112Z,5.93
2023-03-29T21:13:41.123Z,4.22
2023-03-29T21:16:09.151Z,3.88
2023-03-29T21:18:38.631Z,3.42
2023-03-29T21:21:08.175Z,5.20
2023-03-29T21:23:38.008Z,4.07
2023-03-29T21:26:07.912Z,5.38
2023-03-29T21:28:36.007Z,4.90
2023-03-29T21:31:05.925Z,4.22
2023-03-29T21:33:35.229Z,4.18
2023-03-29T21:36:03.381Z,4.07
2023-03-29T21:38:31.419Z,4.25
2023-03-29T21:41:04.195Z,5.43
2023-03-29T21:43:32.816Z,4.97
2023-03-29T21:46:00.872Z,4.93
2023-03-29T21:48:29.098Z,4.95
2023-03-29T21:50:57.041Z,5.88
2023-03-29T21:53:25.884Z,5.38
2023-03-29T21:55:53.854Z,4.70
2023-03-29T21:58:23.250Z,4.72
2023-03-29T22:00:51.528Z,4.93
2023-03-29T22:03:19.649Z,4.25
2023-03-29T22:05:57.797Z,4.57
2023-03-29T22:08:27.213Z,4.32
2023-03-29T22:10:56.817Z,5.22
2023-03-29T22:13:28.701Z,4.57
2023-03-29T22:16:00.044Z,4.80
2023-03-29T22:18:30.203Z,4.15
2023-03-29T22:20:58.497Z,4.32
2023-03-29T22:23:26.451Z,5.15
2023-03-29T22:25:57.941Z,4.45
2023-03-29T22:28:27.296Z,4.28
2023-03-29T22:30:55.350Z,5.07
2023-03-29T22:33:23.248Z,4.78
2023-03-29T22:35:51.240Z,4.82
2023-03-29T22:38:19.163Z,4.28
2023-03-29T22:40:48.245Z,4.57
2023-03-29T22:43:16.108Z,5.25
2023-03-29T22:45:45.496Z,5.40
2023-03-29T22:48:13.412Z,5.22
2023-03-29T22:50:42.960Z,4.65
2023-03-29T22:53:11.661Z,4.15
2023-03-29T22:55:39.609Z,5.63
2023-03-29T22:58:07.500Z,4.50
2023-03-29T23:00:35.555Z,4.78
2023-03-29T23:03:05.185Z,4.38
2023-03-29T23:05:33.164Z,5.20
2023-03-29T23:08:01.188Z,4.80
2023-03-29T23:10:30.601Z,4.90
2023-03-29T23:13:08.604Z,4.55
2023-03-29T23:15:37.455Z,5.95
2023-03-29T23:18:07.049Z,4.80
2023-03-29T23:20:35.119Z,4.70
2023-03-29T23:23:03.046Z,5.10
2023-03-29T23:25:31.538Z,4.53
2023-03-29T23:27:59.684Z,5.40
2023-03-29T23:30:28.082Z,4.63
2023-03-29T23:32:58.281Z,4.78
2023-03-29T23:35:27.765Z,5.13
2023-03-29T23:37:55.728Z,4.70
2023-03-29T23:40:24.557Z,4.75
2023-03-29T23:42:53.078Z,4.78
2023-03-29T23:45:21.071Z,5.47
2023-03-29T23:47:49.014Z,5.18
2023-03-29T23:50:16.989Z,5.72
2023-03-29T23:52:47.215Z,5.38
2023-03-29T23:55:15.701Z,5.72
2023-03-29T23:57:43.803Z,5.13
